Time;durP1;ratioP1;P1;durP2;ratioP2;P2;SDS_P1;SDS_P2;PMS_P1;PMS_P2;Temp;Humidity;BMP_temperature;BMP_pressure;BME280_temperature;BME280_humidity;BME280_pressure;Samples;Min_cycle;Max_cycle;Signal;HPM_P1;HPM_P2
2023/05/12 00:00:33;;;;;;;8.30;4.20;;;;;;;;;;759821;181;915233;-77
2023/05/12 00:03:01;;;;;;;5.33;4.10;;;;;;;;;;769864;183;921060;-77
2023/05/12 00:05:25;;;;;;;6.87;4.97;;;;;;;;;;749179;183;918342;-77
2023/05/12 00:07:50;;;;;;;5.50;3.80;;;;;;;;;;751933;183;919809;-78
2023/05/12 00:10:16;;;;;;;5.73;4.00;;;;;;;;;;763476;183;918696;-78
2023/05/12 00:12:43;;;;;;;6.47;4.73;;;;;;;;;;748960;184;1020748;-77
2023/05/12 00:15:08;;;;;;;5.70;4.87;;;;;;;;;;754983;184;919982;-77
2023/05/12 00:17:35;;;;;;;8.77;4.70;;;;;;;;;;763504;181;818589;-77
2023/05/12 00:20:00;;;;;;;5.37;4.07;;;;;;;;;;750480;185;919449;-77
2023/05/12 00:22:26;;;;;;;6.35;4.78;;;;;;;;;;751963;186;1021009;-77
2023/05/12 00:24:52;;;;;;;6.27;4.80;;;;;;;;;;747600;187;934384;-76
2023/05/12 00:27:18;;;;;;;5.40;4.50;;;;;;;;;;773122;182;869966;-78
2023/05/12 00:29:43;;;;;;;5.97;4.30;;;;;;;;;;759445;182;918448;-78
2023/05/12 00:32:10;;;;;;;13.03;4.77;;;;;;;;;;756647;184;918626;-77
2023/05/12 00:34:35;;;;;;;9.35;5.72;;;;;;;;;;758780;183;917423;-77
2023/05/12 00:37:01;;;;;;;8.20;4.97;;;;;;;;;;756770;182;1020633;-77
2023/05/12 00:39:27;;;;;;;7.03;5.30;;;;;;;;;;766629;183;919228;-77
2023/05/12 00:41:55;;;;;;;9.38;5.70;;;;;;;;;;761361;183;1024187;-77
2023/05/12 00:44:20;;;;;;;7.07;5.30;;;;;;;;;;761887;183;918674;-78
2023/05/12 00:46:46;;;;;;;8.27;5.33;;;;;;;;;;761937;181;919239;-77
2023/05/12 00:49:12;;;;;;;6.27;4.40;;;;;;;;;;768158;181;910014;-76
2023/05/12 00:51:38;;;;;;;5.80;4.80;;;;;;;;;;771489;182;918449;-77
2023/05/12 00:54:04;;;;;;;5.80;4.37;;;;;;;;;;762233;182;918981;-77
2023/05/12 00:56:29;;;;;;;7.10;4.90;;;;;;;;;;761284;183;816561;-77
2023/05/12 00:58:55;;;;;;;7.50;4.73;;;;;;;;;;771248;180;919147;-77
2023/05/12 01:01:21;;;;;;;7.50;5.00;;;;;;;;;;758746;180;932092;-78
2023/05/12 01:03:47;;;;;;;9.00;4.90;;;;;;;;;;729544;190;1021301;-77
2023/05/12 01:06:16;;;;;;;6.57;5.87;;;;;;;;;;737030;189;919258;-77
2023/05/12 01:08:42;;;;;;;5.85;4.10;;;;;;;;;;750158;181;918386;-77
2023/05/12 01:11:07;;;;;;;7.67;5.37;;;;;;;;;;763471;181;1020547;-77
2023/05/12 01:13:33;;;;;;;7.00;4.93;;;;;;;;;;761231;180;919548;-77
2023/05/12 01:15:59;;;;;;;8.23;5.83;;;;;;;;;;767607;181;817088;-77
2023/05/12 01:18:25;;;;;;;7.63;5.03;;;;;;;;;;748736;186;919534;-78
2023/05/12 01:20:52;;;;;;;7.73;6.33;;;;;;;;;;764348;181;816404;-77
2023/05/12 01:23:17;;;;;;;5.80;5.03;;;;;;;;;;764947;181;815634;-78
2023/05/12 01:25:42;;;;;;;6.30;4.77;;;;;;;;;;754200;183;918451;-78
2023/05/12 01:28:08;;;;;;;7.20;5.80;;;;;;;;;;761643;181;815330;-77
2023/05/12 01:30:34;;;;;;;7.53;5.33;;;;;;;;;;769506;181;917897;-78
2023/05/12 01:33:00;;;;;;;6.77;4.93;;;;;;;;;;768652;180;917371;-77
2023/05/12 01:35:26;;;;;;;9.53;5.00;;;;;;;;;;768141;180;916361;-77
2023/05/12 01:37:52;;;;;;;7.17;4.87;;;;;;;;;;768354;180;919338;-77
2023/05/12 01:40:17;;;;;;;6.50;3.97;;;;;;;;;;768921;180;1064642;-78
2023/05/12 01:42:43;;;;;;;10.37;4.50;;;;;;;;;;755118;180;952329;-78
2023/05/12 01:45:09;;;;;;;7.20;4.60;;;;;;;;;;750384;186;920341;-78
2023/05/12 01:47:35;;;;;;;7.03;5.17;;;;;;;;;;749241;186;920533;-77
2023/05/12 01:50:02;;;;;;;7.37;4.73;;;;;;;;;;757634;181;917916;-78
2023/05/12 01:52:27;;;;;;;7.53;5.30;;;;;;;;;;760444;181;918361;-78
2023/05/12 01:54:53;;;;;;;7.17;4.67;;;;;;;;;;766552;181;816430;-78
2023/05/12 01:57:19;;;;;;;8.20;5.17;;;;;;;;;;768007;183;918306;-78
2023/05/12 01:59:44;;;;;;;6.00;4.83;;;;;;;;;;755440;183;919241;-78
2023/05/12 02:02:11;;;;;;;5.67;4.80;;;;;;;;;;762767;181;812840;-78
2023/05/12 02:04:36;;;;;;;5.40;4.27;;;;;;;;;;766497;180;817469;-78
2023/05/12 02:07:02;;;;;;;7.73;4.70;;;;;;;;;;762418;181;920253;-77
2023/05/12 02:09:28;;;;;;;5.57;4.10;;;;;;;;;;763571;181;1087933;-77
2023/05/12 02:11:54;;;;;;;6.10;3.87;;;;;;;;;;764101;181;915033;-78
2023/05/12 02:14:19;;;;;;;7.13;4.60;;;;;;;;;;756597;181;1015564;-78
2023/05/12 02:16:49;;;;;;;7.10;5.00;;;;;;;;;;766135;182;918439;-77
2023/05/12 02:19:11;;;;;;;7.50;4.70;;;;;;;;;;768423;183;812962;-77
2023/05/12 02:21:37;;;;;;;8.30;4.20;;;;;;;;;;762117;181;915269;-78
2023/05/12 02:24:03;;;;;;;6.60;4.40;;;;;;;;;;764611;181;910284;-78
2023/05/12 02:26:29;;;;;;;6.27;3.97;;;;;;;;;;766099;181;910269;-78
2023/05/12 02:28:54;;;;;;;5.53;4.10;;;;;;;;;;764824;181;915904;-78
2023/05/12 02:31:20;;;;;;;6.43;5.07;;;;;;;;;;761406;181;916315;-78
2023/05/12 02:33:47;;;;;;;6.03;3.92;;;;;;;;;;769590;181;1029887;-78
2023/05/12 02:36:12;;;;;;;8.93;4.37;;;;;;;;;;765342;181;918642;-78
2023/05/12 02:38:39;;;;;;;5.53;3.90;;;;;;;;;;760699;181;918704;-78
2023/05/12 02:41:04;;;;;;;5.40;4.00;;;;;;;;;;760666;181;918908;-77
2023/05/12 02:43:30;;;;;;;6.37;4.10;;;;;;;;;;770972;180;912204;-78
2023/05/12 02:45:56;;;;;;;5.93;4.30;;;;;;;;;;764014;180;918920;-78
2023/05/12 02:48:21;;;;;;;8.63;4.80;;;;;;;;;;765508;180;918487;-78
2023/05/12 02:50:47;;;;;;;7.60;4.70;;;;;;;;;;748178;184;917733;-78
2023/05/12 02:53:13;;;;;;;6.97;4.70;;;;;;;;;;761790;183;918506;-78
2023/05/12 02:55:39;;;;;;;5.53;4.23;;;;;;;;;;768049;183;906957;-78
2023/05/12 02:58:05;;;;;;;6.17;4.37;;;;;;;;;;765836;183;920171;-77
2023/05/12 03:00:30;;;;;;;6.00;4.30;;;;;;;;;;765080;180;816663;-77
2023/05/12 03:02:56;;;;;;;4.87;3.97;;;;;;;;;;761037;181;920155;-78
2023/05/12 03:05:22;;;;;;;8.33;4.63;;;;;;;;;;769077;180;816000;-77
2023/05/12 03:07:49;;;;;;;6.10;4.70;;;;;;;;;;765043;181;1013121;-78
2023/05/12 03:10:15;;;;;;;4.93;3.93;;;;;;;;;;755697;183;916188;-78
2023/05/12 03:12:41;;;;;;;5.87;4.67;;;;;;;;;;759210;181;1021897;-77
2023/05/12 03:15:07;;;;;;;5.23;4.20;;;;;;;;;;769989;181;815211;-77
2023/05/12 03:17:33;;;;;;;4.73;3.80;;;;;;;;;;761651;180;920635;-77
2023/05/12 03:19:59;;;;;;;6.20;3.90;;;;;;;;;;764598;181;919683;-77
2023/05/12 03:22:25;;;;;;;6.37;4.87;;;;;;;;;;770569;183;918982;-78
2023/05/12 03:24:50;;;;;;;7.07;4.30;;;;;;;;;;761472;183;913202;-78
2023/05/12 03:27:16;;;;;;;5.03;4.00;;;;;;;;;;761414;181;817288;-78
2023/05/12 03:29:42;;;;;;;5.23;3.90;;;;;;;;;;767239;180;919145;-78
2023/05/12 03:32:08;;;;;;;6.77;4.03;;;;;;;;;;761194;184;910122;-78
2023/05/12 03:34:34;;;;;;;6.33;5.00;;;;;;;;;;759982;180;814777;-77
2023/05/12 03:37:00;;;;;;;6.73;4.67;;;;;;;;;;760772;181;815932;-77
2023/05/12 03:39:26;;;;;;;12.87;5.10;;;;;;;;;;767250;180;1017319;-77
2023/05/12 03:41:51;;;;;;;10.07;5.00;;;;;;;;;;766598;180;816942;-78
2023/05/12 03:44:17;;;;;;;5.97;4.70;;;;;;;;;;749927;186;918531;-78
2023/05/12 03:46:43;;;;;;;6.80;4.63;;;;;;;;;;770843;181;918979;-78
2023/05/12 03:49:09;;;;;;;5.30;4.20;;;;;;;;;;766991;183;918652;-78
2023/05/12 03:51:35;;;;;;;6.50;5.33;;;;;;;;;;758008;181;1021370;-78
2023/05/12 03:54:01;;;;;;;6.05;4.90;;;;;;;;;;762357;181;918194;-78
2023/05/12 03:56:27;;;;;;;8.10;5.30;;;;;;;;;;750979;184;917768;-77
2023/05/12 03:58:52;;;;;;;7.47;5.40;;;;;;;;;;760932;180;918487;-78
2023/05/12 04:01:18;;;;;;;9.33;5.57;;;;;;;;;;762121;183;917644;-78
2023/05/12 04:03:44;;;;;;;5.60;4.40;;;;;;;;;;764338;180;817945;-78
2023/05/12 04:06:10;;;;;;;7.00;4.97;;;;;;;;;;757885;182;918255;-78
2023/05/12 04:08:36;;;;;;;6.87;4.87;;;;;;;;;;754611;183;920464;-78
2023/05/12 04:11:02;;;;;;;9.73;6.20;;;;;;;;;;769511;180;899987;-78
2023/05/12 04:13:27;;;;;;;8.53;5.30;;;;;;;;;;757747;180;919395;-78
2023/05/12 04:15:54;;;;;;;7.97;6.05;;;;;;;;;;765018;180;931363;-78
2023/05/12 04:18:20;;;;;;;7.30;5.80;;;;;;;;;;770464;179;716826;-78
2023/05/12 04:20:46;;;;;;;8.33;5.47;;;;;;;;;;736096;189;916159;-78
2023/05/12 04:23:13;;;;;;;8.57;5.80;;;;;;;;;;738575;186;921989;-78
2023/05/12 04:25:39;;;;;;;7.63;6.03;;;;;;;;;;747897;186;915479;-77
2023/05/12 04:28:04;;;;;;;7.83;6.40;;;;;;;;;;762912;183;918762;-78
2023/05/12 04:30:30;;;;;;;6.15;5.53;;;;;;;;;;755733;181;918953;-78
2023/05/12 04:32:56;;;;;;;7.63;5.17;;;;;;;;;;765919;180;917727;-78
2023/05/12 04:35:21;;;;;;;6.83;5.10;;;;;;;;;;769232;184;919116;-79
2023/05/12 04:37:48;;;;;;;5.30;4.27;;;;;;;;;;766903;180;918235;-78
2023/05/12 04:40:13;;;;;;;4.57;3.95;;;;;;;;;;768072;180;1021967;-78
2023/05/12 04:42:39;;;;;;;7.13;5.10;;;;;;;;;;767001;180;917878;-79
2023/05/12 04:45:06;;;;;;;5.43;3.87;;;;;;;;;;752184;184;916280;-79
2023/05/12 04:47:31;;;;;;;8.77;5.17;;;;;;;;;;764242;181;632511;-79
2023/05/12 04:49:57;;;;;;;12.03;4.40;;;;;;;;;;771077;183;704101;-79
2023/05/12 04:52:23;;;;;;;6.93;4.37;;;;;;;;;;774513;182;841835;-80
2023/05/12 04:54:49;;;;;;;5.97;4.60;;;;;;;;;;762449;181;818554;-80
2023/05/12 04:57:15;;;;;;;9.33;5.10;;;;;;;;;;757235;181;815712;-79
2023/05/12 04:59:41;;;;;;;11.53;4.87;;;;;;;;;;767195;180;817860;-79
2023/05/12 05:02:06;;;;;;;9.23;5.27;;;;;;;;;;762463;180;922267;-80
2023/05/12 05:04:32;;;;;;;7.27;5.60;;;;;;;;;;761581;180;926175;-80
2023/05/12 05:06:58;;;;;;;7.13;5.33;;;;;;;;;;767171;181;917817;-79
2023/05/12 05:09:24;;;;;;;7.50;5.77;;;;;;;;;;750867;183;926610;-80
2023/05/12 05:11:50;;;;;;;6.77;5.70;;;;;;;;;;765221;183;918639;-80
2023/05/12 05:14:15;;;;;;;5.80;5.00;;;;;;;;;;770798;183;917326;-79
2023/05/12 05:16:41;;;;;;;8.23;5.17;;;;;;;;;;764792;180;918868;-80
2023/05/12 05:19:07;;;;;;;11.77;6.30;;;;;;;;;;738830;187;821692;-80
2023/05/12 05:21:33;;;;;;;9.40;5.00;;;;;;;;;;736532;190;919035;-80
2023/05/12 05:23:59;;;;;;;7.40;5.20;;;;;;;;;;764001;182;840464;-79
2023/05/12 05:26:25;;;;;;;6.77;4.53;;;;;;;;;;759158;183;920228;-79
2023/05/12 05:28:53;;;;;;;7.40;4.57;;;;;;;;;;759311;183;918883;-79
2023/05/12 05:31:16;;;;;;;8.40;4.87;;;;;;;;;;766028;183;919842;-79
2023/05/12 05:33:43;;;;;;;7.20;4.50;;;;;;;;;;760056;181;918550;-79
2023/05/12 05:36:08;;;;;;;16.00;4.55;;;;;;;;;;765543;181;915191;-79
2023/05/12 05:38:34;;;;;;;8.83;4.50;;;;;;;;;;772743;182;918387;-79
2023/05/12 05:41:00;;;;;;;7.50;4.80;;;;;;;;;;759135;181;918148;-79
2023/05/12 05:43:26;;;;;;;8.20;5.40;;;;;;;;;;761310;181;919181;-79
2023/05/12 05:45:51;;;;;;;7.00;4.90;;;;;;;;;;762502;181;919630;-79
2023/05/12 05:48:17;;;;;;;7.67;5.10;;;;;;;;;;767976;181;915160;-79
2023/05/12 05:50:43;;;;;;;6.60;4.90;;;;;;;;;;764518;181;815917;-79
2023/05/12 05:53:09;;;;;;;7.53;5.55;;;;;;;;;;755533;181;1119968;-78
2023/05/12 05:55:35;;;;;;;6.97;5.00;;;;;;;;;;766313;183;931682;-79
2023/05/12 05:58:01;;;;;;;8.47;4.87;;;;;;;;;;763638;181;912159;-79
2023/05/12 06:00:26;;;;;;;6.60;5.10;;;;;;;;;;762817;181;822406;-80
2023/05/12 06:02:52;;;;;;;9.07;5.70;;;;;;;;;;765563;181;919288;-79
2023/05/12 06:05:18;;;;;;;6.60;4.27;;;;;;;;;;757610;181;816886;-79
2023/05/12 06:07:44;;;;;;;7.50;4.60;;;;;;;;;;758153;180;816590;-80
2023/05/12 06:10:10;;;;;;;5.78;4.40;;;;;;;;;;765074;181;920652;-79
2023/05/12 06:12:36;;;;;;;12.33;4.80;;;;;;;;;;764382;181;918345;-80
2023/05/12 06:15:02;;;;;;;7.40;4.73;;;;;;;;;;757373;181;919507;-80
2023/05/12 06:17:27;;;;;;;7.70;5.00;;;;;;;;;;766939;181;935381;-80
2023/05/12 06:19:53;;;;;;;8.80;5.00;;;;;;;;;;772518;180;1001189;-80
2023/05/12 06:22:20;;;;;;;6.23;4.70;;;;;;;;;;758415;180;915847;-79
2023/05/12 06:24:45;;;;;;;10.73;5.47;;;;;;;;;;756792;183;915700;-80
2023/05/12 06:27:11;;;;;;;14.80;4.97;;;;;;;;;;764773;180;908476;-80
2023/05/12 06:29:37;;;;;;;7.53;5.03;;;;;;;;;;761916;184;815925;-80
2023/05/12 06:32:03;;;;;;;7.28;4.60;;;;;;;;;;749194;186;922097;-80
2023/05/12 06:34:28;;;;;;;10.73;5.37;;;;;;;;;;742700;190;919956;-80
2023/05/12 06:36:54;;;;;;;7.40;4.40;;;;;;;;;;768286;182;816751;-80
2023/05/12 06:39:20;;;;;;;6.50;5.03;;;;;;;;;;762527;181;917690;-80
2023/05/12 06:41:46;;;;;;;6.63;5.00;;;;;;;;;;762152;181;919551;-79
2023/05/12 06:44:12;;;;;;;9.90;4.70;;;;;;;;;;772131;180;917796;-81
2023/05/12 06:46:38;;;;;;;5.90;4.07;;;;;;;;;;764848;183;919055;-80
2023/05/12 06:49:03;;;;;;;6.55;4.20;;;;;;;;;;760452;182;929863;-80
2023/05/12 06:51:29;;;;;;;6.03;4.60;;;;;;;;;;767297;182;918202;-81
2023/05/12 06:53:55;;;;;;;5.87;4.40;;;;;;;;;;756291;183;917832;-80
2023/05/12 06:56:22;;;;;;;8.47;4.67;;;;;;;;;;753275;180;919555;-80
2023/05/12 06:58:48;;;;;;;5.90;4.80;;;;;;;;;;764267;181;918266;-79
2023/05/12 07:01:13;;;;;;;8.10;4.60;;;;;;;;;;763047;181;816081;-79
2023/05/12 07:03:39;;;;;;;6.10;4.83;;;;;;;;;;767767;181;814778;-78
2023/05/12 07:06:04;;;;;;;9.00;4.57;;;;;;;;;;771613;181;816796;-80
2023/05/12 07:08:30;;;;;;;6.30;3.63;;;;;;;;;;760543;183;919538;-79
2023/05/12 07:10:56;;;;;;;5.70;3.90;;;;;;;;;;764191;180;1013425;-79
2023/05/12 07:13:22;;;;;;;6.27;4.10;;;;;;;;;;764058;181;919060;-79
2023/05/12 07:15:48;;;;;;;5.80;4.40;;;;;;;;;;761862;181;777202;-80
2023/05/12 07:18:14;;;;;;;10.10;4.37;;;;;;;;;;759183;181;918127;-79
2023/05/12 07:20:40;;;;;;;7.37;4.63;;;;;;;;;;755628;181;916428;-79
2023/05/12 07:23:05;;;;;;;7.43;4.57;;;;;;;;;;769618;181;965228;-80
2023/05/12 07:25:31;;;;;;;9.40;4.80;;;;;;;;;;761116;181;919029;-79
2023/05/12 07:27:57;;;;;;;6.33;4.07;;;;;;;;;;767851;181;815328;-79
2023/05/12 07:30:23;;;;;;;5.60;4.20;;;;;;;;;;768725;180;918605;-79
2023/05/12 07:32:49;;;;;;;5.60;4.20;;;;;;;;;;739645;186;919095;-79
2023/05/12 07:35:14;;;;;;;7.23;4.30;;;;;;;;;;759186;182;916565;-79
2023/05/12 07:37:40;;;;;;;6.70;3.87;;;;;;;;;;752204;182;917945;-78
2023/05/12 07:40:07;;;;;;;6.70;4.17;;;;;;;;;;771663;181;1018348;-79
2023/05/12 07:42:33;;;;;;;4.90;3.70;;;;;;;;;;751613;182;908692;-78
2023/05/12 07:44:58;;;;;;;7.47;4.20;;;;;;;;;;756938;183;1021978;-79
2023/05/12 07:47:25;;;;;;;5.70;4.00;;;;;;;;;;757339;184;936869;-80
2023/05/12 07:49:50;;;;;;;5.00;3.87;;;;;;;;;;764187;183;819106;-79
2023/05/12 07:52:16;;;;;;;5.93;3.20;;;;;;;;;;762020;182;872221;-79
2023/05/12 07:54:42;;;;;;;7.17;3.83;;;;;;;;;;765830;181;1022419;-79
2023/05/12 07:57:08;;;;;;;4.67;3.80;;;;;;;;;;759230;182;1016449;-79
2023/05/12 07:59:34;;;;;;;7.70;4.27;;;;;;;;;;756544;181;903400;-79
2023/05/12 08:01:59;;;;;;;7.07;3.87;;;;;;;;;;764097;183;919773;-79
2023/05/12 08:04:25;;;;;;;7.07;4.30;;;;;;;;;;763560;181;1022530;-79
2023/05/12 08:06:51;;;;;;;6.10;3.67;;;;;;;;;;761553;183;919307;-80
2023/05/12 08:09:17;;;;;;;6.47;4.10;;;;;;;;;;761725;181;921878;-79
2023/05/12 08:11:43;;;;;;;4.93;3.50;;;;;;;;;;763030;182;919222;-79
2023/05/12 08:14:09;;;;;;;9.60;4.00;;;;;;;;;;761267;181;1022609;-79
2023/05/12 08:16:35;;;;;;;5.70;3.73;;;;;;;;;;760378;181;919268;-79
2023/05/12 08:19:01;;;;;;;7.50;4.43;;;;;;;;;;755765;184;919195;-79
2023/05/12 08:21:27;;;;;;;6.70;3.60;;;;;;;;;;765606;181;820266;-78
2023/05/12 08:23:52;;;;;;;6.63;4.23;;;;;;;;;;761551;181;919728;-80
2023/05/12 08:26:18;;;;;;;5.45;3.45;;;;;;;;;;770832;180;919771;-80
2023/05/12 08:28:44;;;;;;;9.93;4.30;;;;;;;;;;767187;180;916021;-79
2023/05/12 08:31:10;;;;;;;5.00;3.40;;;;;;;;;;761688;181;913540;-79
2023/05/12 08:33:36;;;;;;;8.07;3.87;;;;;;;;;;750109;183;1017192;-79
2023/05/12 08:36:02;;;;;;;9.60;3.73;;;;;;;;;;763115;184;1023472;-80
2023/05/12 08:38:28;;;;;;;4.87;3.57;;;;;;;;;;754288;184;913547;-80
2023/05/12 08:40:56;;;;;;;8.60;3.90;;;;;;;;;;761964;180;918525;-80
2023/05/12 08:43:24;;;;;;;8.70;4.07;;;;;;;;;;765561;180;1021359;-79
2023/05/12 08:45:48;;;;;;;5.40;3.57;;;;;;;;;;768894;180;798333;-81
2023/05/12 08:48:14;;;;;;;6.85;3.47;;;;;;;;;;761135;180;1122808;-80
2023/05/12 08:50:40;;;;;;;5.83;3.90;;;;;;;;;;771258;180;820419;-79
2023/05/12 08:53:07;;;;;;;6.57;3.50;;;;;;;;;;772330;179;748121;-80
2023/05/12 08:55:33;;;;;;;6.13;3.80;;;;;;;;;;767589;180;1021993;-79
2023/05/12 08:57:58;;;;;;;6.30;4.00;;;;;;;;;;762024;183;989149;-80
2023/05/12 09:00:24;;;;;;;5.03;3.50;;;;;;;;;;763701;181;915161;-81
2023/05/12 09:02:50;;;;;;;4.83;3.07;;;;;;;;;;757154;181;994789;-80
2023/05/12 09:05:16;;;;;;;4.27;3.30;;;;;;;;;;757143;181;1019025;-81
2023/05/12 09:07:43;;;;;;;5.70;3.17;;;;;;;;;;762343;183;921828;-81
2023/05/12 09:10:08;;;;;;;6.60;4.00;;;;;;;;;;740979;187;1025409;-79
2023/05/12 09:12:34;;;;;;;4.85;3.10;;;;;;;;;;765715;181;914074;-81
2023/05/12 09:15:03;;;;;;;5.30;3.30;;;;;;;;;;769493;181;916737;-81
2023/05/12 09:17:29;;;;;;;5.33;3.13;;;;;;;;;;765617;181;845760;-82
2023/05/12 09:19:55;;;;;;;6.83;3.37;;;;;;;;;;751789;180;823250;-80
2023/05/12 09:22:26;;;;;;;9.33;4.57;;;;;;;;;;760099;183;1020616;-80
2023/05/12 09:24:52;;;;;;;4.57;3.20;;;;;;;;;;761589;183;925737;-79
2023/05/12 09:27:25;;;;;;;5.80;3.20;;;;;;;;;;766621;180;1025823;-80
2023/05/12 09:29:50;;;;;;;3.30;2.80;;;;;;;;;;759325;180;906041;-79
2023/05/12 09:32:16;;;;;;;4.07;2.70;;;;;;;;;;762931;182;892151;-79
2023/05/12 09:34:42;;;;;;;3.73;2.63;;;;;;;;;;764296;181;818330;-79
2023/05/12 09:37:08;;;;;;;5.20;3.30;;;;;;;;;;763554;181;896679;-78
2023/05/12 09:39:33;;;;;;;4.70;2.90;;;;;;;;;;761848;181;816078;-78
2023/05/12 09:41:59;;;;;;;4.33;3.33;;;;;;;;;;767345;181;1127978;-80
2023/05/12 09:44:27;;;;;;;13.00;3.03;;;;;;;;;;737440;190;859610;-80
2023/05/12 09:46:51;;;;;;;5.63;3.00;;;;;;;;;;763496;183;1023282;-79
2023/05/12 09:49:21;;;;;;;6.97;3.20;;;;;;;;;;764028;184;816630;-80
2023/05/12 09:51:47;;;;;;;4.00;3.00;;;;;;;;;;766392;181;1021568;-80
2023/05/12 09:54:12;;;;;;;6.80;3.83;;;;;;;;;;762716;182;843046;-80
2023/05/12 09:56:38;;;;;;;4.50;3.07;;;;;;;;;;750784;182;919037;-81
2023/05/12 09:59:04;;;;;;;4.60;3.03;;;;;;;;;;765570;183;918611;-80
2023/05/12 10:01:30;;;;;;;5.13;2.97;;;;;;;;;;763459;180;923472;-80
2023/05/12 10:03:56;;;;;;;3.47;2.67;;;;;;;;;;769026;183;1127940;-82
2023/05/12 10:06:27;;;;;;;5.20;3.20;;;;;;;;;;766441;182;1022027;-80
2023/05/12 10:08:54;;;;;;;3.77;3.03;;;;;;;;;;769413;181;933049;-80
2023/05/12 10:11:20;;;;;;;5.93;3.00;;;;;;;;;;761909;181;986228;-80
2023/05/12 10:13:45;;;;;;;6.12;2.67;;;;;;;;;;765049;181;1020347;-80
2023/05/12 10:16:11;;;;;;;4.10;2.70;;;;;;;;;;768729;181;814407;-80
2023/05/12 10:18:37;;;;;;;3.73;2.53;;;;;;;;;;764173;181;1019319;-79
2023/05/12 10:21:03;;;;;;;8.70;4.50;;;;;;;;;;758885;183;1021067;-79
2023/05/12 10:23:29;;;;;;;6.80;3.10;;;;;;;;;;763046;181;1020978;-79
2023/05/12 10:25:57;;;;;;;3.97;2.83;;;;;;;;;;765233;181;817638;-78
2023/05/12 10:28:21;;;;;;;5.37;3.20;;;;;;;;;;760348;180;1169645;-79
2023/05/12 10:30:49;;;;;;;4.80;3.23;;;;;;;;;;763453;181;886875;-79
2023/05/12 10:33:14;;;;;;;4.30;2.97;;;;;;;;;;762870;181;919357;-80
2023/05/12 10:35:39;;;;;;;4.50;3.07;;;;;;;;;;764212;183;844439;-79
2023/05/12 10:38:05;;;;;;;10.30;3.00;;;;;;;;;;756163;180;914345;-80
2023/05/12 10:40:31;;;;;;;5.57;2.47;;;;;;;;;;767103;180;913971;-79
2023/05/12 10:42:57;;;;;;;4.53;2.80;;;;;;;;;;755735;181;985814;-80
2023/05/12 10:45:23;;;;;;;6.37;2.73;;;;;;;;;;765008;181;812217;-81
2023/05/12 10:47:49;;;;;;;5.27;3.00;;;;;;;;;;765099;181;919452;-80
2023/05/12 10:50:14;;;;;;;4.50;3.10;;;;;;;;;;746903;187;931564;-80
2023/05/12 10:52:40;;;;;;;4.60;2.90;;;;;;;;;;737389;189;916584;-79
2023/05/12 10:55:07;;;;;;;8.63;3.50;;;;;;;;;;769569;182;811658;-79
2023/05/12 10:57:32;;;;;;;6.30;3.12;;;;;;;;;;760021;183;1011400;-80
2023/05/12 10:59:58;;;;;;;6.87;3.43;;;;;;;;;;766752;182;919244;-80
2023/05/12 11:02:27;;;;;;;7.93;3.47;;;;;;;;;;766317;181;940096;-80
2023/05/12 11:04:51;;;;;;;5.60;3.30;;;;;;;;;;775582;181;884972;-80
2023/05/12 11:07:17;;;;;;;10.73;3.30;;;;;;;;;;760204;180;918887;-80
2023/05/12 11:09:42;;;;;;;3.93;2.27;;;;;;;;;;765919;182;753909;-80
2023/05/12 11:12:08;;;;;;;8.43;3.60;;;;;;;;;;774547;181;917767;-80
2023/05/12 11:14:34;;;;;;;6.30;3.90;;;;;;;;;;761867;180;1021831;-79
2023/05/12 11:17:00;;;;;;;9.93;3.57;;;;;;;;;;760963;180;914568;-80
2023/05/12 11:19:27;;;;;;;7.13;4.00;;;;;;;;;;766121;180;1024434;-80
2023/05/12 11:21:52;;;;;;;9.50;3.80;;;;;;;;;;758958;180;915885;-79
2023/05/12 11:24:18;;;;;;;6.68;3.50;;;;;;;;;;765071;180;1016361;-79
2023/05/12 11:26:44;;;;;;;13.03;4.10;;;;;;;;;;759987;183;915542;-77
2023/05/12 11:29:10;;;;;;;6.53;3.63;;;;;;;;;;768828;181;975669;-78
2023/05/12 11:31:36;;;;;;;5.60;3.53;;;;;;;;;;761805;182;924906;-79
2023/05/12 11:34:03;;;;;;;10.37;3.73;;;;;;;;;;757344;181;868298;-79
2023/05/12 11:36:28;;;;;;;7.10;3.10;;;;;;;;;;762694;183;934945;-79
2023/05/12 11:38:54;;;;;;;5.37;3.73;;;;;;;;;;752223;181;1023256;-79
2023/05/12 11:41:22;;;;;;;6.37;3.72;;;;;;;;;;754128;181;914288;-78
2023/05/12 11:43:47;;;;;;;5.57;3.80;;;;;;;;;;767436;184;914903;-79
2023/05/12 11:46:13;;;;;;;5.60;3.70;;;;;;;;;;774054;170;917220;-79
2023/05/12 11:48:39;;;;;;;6.83;3.43;;;;;;;;;;751223;182;912971;-79
2023/05/12 11:51:05;;;;;;;7.10;3.53;;;;;;;;;;760175;183;912678;-78
2023/05/12 11:53:34;;;;;;;6.03;3.60;;;;;;;;;;753643;185;812258;-79
2023/05/12 11:55:58;;;;;;;6.70;4.00;;;;;;;;;;754203;183;922137;-78
2023/05/12 11:58:25;;;;;;;5.17;3.23;;;;;;;;;;767727;183;916808;-78
2023/05/12 12:00:49;;;;;;;7.10;3.47;;;;;;;;;;769254;181;918362;-79
2023/05/12 12:03:15;;;;;;;5.27;4.13;;;;;;;;;;752681;183;1020558;-78
2023/05/12 12:05:40;;;;;;;6.47;3.53;;;;;;;;;;759978;183;919206;-78
2023/05/12 12:08:06;;;;;;;5.77;4.20;;;;;;;;;;770555;183;920423;-78
2023/05/12 12:10:32;;;;;;;6.00;3.70;;;;;;;;;;766116;181;819172;-78
2023/05/12 12:12:58;;;;;;;6.43;3.20;;;;;;;;;;754541;183;1121125;-79
2023/05/12 12:15:24;;;;;;;5.17;3.47;;;;;;;;;;759743;184;909708;-80
2023/05/12 12:17:50;;;;;;;4.70;3.10;;;;;;;;;;768710;182;919550;-79
2023/05/12 12:20:17;;;;;;;9.80;4.90;;;;;;;;;;756371;183;919543;-79
2023/05/12 12:22:42;;;;;;;7.60;4.60;;;;;;;;;;764985;180;918014;-78
2023/05/12 12:25:08;;;;;;;7.70;4.67;;;;;;;;;;767276;181;918491;-79
2023/05/12 12:27:34;;;;;;;6.90;5.00;;;;;;;;;;763255;180;916244;-80
2023/05/12 12:30:00;;;;;;;15.75;5.07;;;;;;;;;;761283;180;918670;-79
2023/05/12 12:32:25;;;;;;;10.10;5.00;;;;;;;;;;765355;183;920803;-78
2023/05/12 12:34:52;;;;;;;9.60;5.70;;;;;;;;;;760911;181;941023;-78
2023/05/12 12:37:17;;;;;;;11.40;5.00;;;;;;;;;;763028;180;1022371;-79
2023/05/12 12:39:43;;;;;;;11.50;5.30;;;;;;;;;;769981;180;814972;-79
2023/05/12 12:42:09;;;;;;;17.13;4.90;;;;;;;;;;739382;186;922591;-78
2023/05/12 12:44:35;;;;;;;8.00;5.10;;;;;;;;;;766133;181;919794;-79
2023/05/12 12:47:01;;;;;;;9.60;5.70;;;;;;;;;;763710;183;869496;-77
2023/05/12 12:49:27;;;;;;;11.93;5.73;;;;;;;;;;757042;184;815860;-78
2023/05/12 12:51:52;;;;;;;12.03;6.13;;;;;;;;;;752563;183;919292;-79
2023/05/12 12:54:18;;;;;;;8.73;5.03;;;;;;;;;;757754;183;920224;-79
2023/05/12 12:56:44;;;;;;;9.70;4.70;;;;;;;;;;766556;180;933380;-79
2023/05/12 12:59:10;;;;;;;10.40;5.17;;;;;;;;;;762263;181;918087;-79
2023/05/12 13:01:36;;;;;;;12.33;5.70;;;;;;;;;;761107;181;872197;-78
2023/05/12 13:04:02;;;;;;;16.90;10.23;;;;;;;;;;764832;183;1120616;-78
2023/05/12 13:06:28;;;;;;;13.43;7.75;;;;;;;;;;765345;181;916080;-78
2023/05/12 13:08:53;;;;;;;10.85;6.12;;;;;;;;;;773097;181;918658;-79
2023/05/12 13:11:19;;;;;;;12.43;5.40;;;;;;;;;;752955;181;751938;-78
2023/05/12 13:13:45;;;;;;;18.13;5.50;;;;;;;;;;750845;183;786932;-78
2023/05/12 13:16:11;;;;;;;11.73;5.33;;;;;;;;;;758977;176;920039;-79
2023/05/12 13:18:36;;;;;;;16.20;6.30;;;;;;;;;;763112;180;1124402;-79
2023/05/12 13:21:03;;;;;;;10.90;6.20;;;;;;;;;;769824;181;917418;-79
2023/05/12 13:23:28;;;;;;;11.93;7.60;;;;;;;;;;759349;181;961402;-80
2023/05/12 13:25:54;;;;;;;7.90;5.30;;;;;;;;;;763611;183;1214476;-80
2023/05/12 13:28:20;;;;;;;13.80;6.93;;;;;;;;;;762628;182;1020950;-79
2023/05/12 13:30:46;;;;;;;18.53;9.00;;;;;;;;;;761653;182;817259;-80
2023/05/12 13:33:12;;;;;;;12.73;6.40;;;;;;;;;;764928;180;919733;-80
2023/05/12 13:35:38;;;;;;;20.07;15.30;;;;;;;;;;758332;184;905189;-79
2023/05/12 13:38:03;;;;;;;14.23;8.53;;;;;;;;;;748880;188;827450;-80
2023/05/12 13:40:29;;;;;;;11.63;8.53;;;;;;;;;;744872;188;816225;-79
2023/05/12 13:42:55;;;;;;;9.70;5.63;;;;;;;;;;741120;188;919803;-79
2023/05/12 13:45:21;;;;;;;11.07;7.07;;;;;;;;;;738511;190;913675;-79
2023/05/12 13:47:47;;;;;;;18.40;5.80;;;;;;;;;;762496;181;919076;-79
2023/05/12 13:50:13;;;;;;;15.10;6.40;;;;;;;;;;749127;182;917351;-79
2023/05/12 13:52:38;;;;;;;13.53;8.10;;;;;;;;;;770487;183;919633;-79
2023/05/12 13:55:05;;;;;;;13.77;6.60;;;;;;;;;;754937;184;921867;-79
2023/05/12 13:57:30;;;;;;;8.90;6.07;;;;;;;;;;755786;181;919016;-79
2023/05/12 13:59:57;;;;;;;8.73;6.13;;;;;;;;;;768548;181;919521;-79
2023/05/12 14:02:22;;;;;;;7.87;5.30;;;;;;;;;;763707;180;919311;-80
2023/05/12 14:04:48;;;;;;;9.60;5.77;;;;;;;;;;743773;187;1018585;-79
2023/05/12 14:07:14;;;;;;;11.77;6.20;;;;;;;;;;766597;182;813508;-78
2023/05/12 14:09:40;;;;;;;12.43;5.80;;;;;;;;;;763631;181;1021922;-78
2023/05/12 14:12:06;;;;;;;17.10;8.63;;;;;;;;;;764662;183;816268;-79
2023/05/12 14:14:32;;;;;;;10.70;6.27;;;;;;;;;;766362;181;919302;-77
2023/05/12 14:16:58;;;;;;;7.63;3.70;;;;;;;;;;775913;181;811985;-78